Time;durP1;ratioP1;P1;durP2;ratioP2;P2;SDS_P1;SDS_P2;PMS_P1;PMS_P2;Temp;Humidity;BMP_temperature;BMP_pressure;BME280_temperature;BME280_humidity;BME280_pressure;Samples;Min_cycle;Max_cycle;Signal;HPM_P1;HPM_P2
2022/07/01 00:00:49;;;;;;;19.25;16.08;;;;;;;13.71;100.00;101421.59;10374778;28;20069;-83
2022/07/01 00:05:49;;;;;;;19.33;14.55;;;;;;;13.60;100.00;101429.53;10376253;28;20453;-81
2022/07/01 00:10:50;;;;;;;18.75;16.08;;;;;;;13.59;100.00;101433.28;10376515;28;20092;-83
2022/07/01 00:15:51;;;;;;;20.60;16.48;;;;;;;13.57;100.00;101441.66;10375729;28;20034;-82
2022/07/01 00:20:51;;;;;;;23.67;16.92;;;;;;;13.55;100.00;101437.47;10370338;28;20042;-82
2022/07/01 00:25:52;;;;;;;23.17;17.55;;;;;;;13.52;100.00;101430.53;10384419;28;20041;-82
2022/07/01 00:30:52;;;;;;;26.33;17.40;;;;;;;13.47;100.00;101438.50;10375327;28;20057;-82
2022/07/01 00:35:53;;;;;;;17.70;15.32;;;;;;;13.48;100.00;101442.88;10378052;28;20038;-82
2022/07/01 00:40:54;;;;;;;24.73;19.83;;;;;;;13.43;100.00;101467.13;10375490;28;20034;-82
2022/07/01 00:45:55;;;;;;;19.63;16.63;;;;;;;13.47;100.00;101457.53;10357831;28;20073;-82
2022/07/01 00:50:55;;;;;;;23.05;17.67;;;;;;;13.49;100.00;101439.94;10379431;28;20059;-82
2022/07/01 00:55:56;;;;;;;23.73;15.35;;;;;;;13.38;100.00;101435.09;10375128;28;20038;-82
2022/07/01 01:00:56;;;;;;;24.05;18.15;;;;;;;13.34;100.00;101438.44;10374090;28;20057;-82
2022/07/01 01:05:57;;;;;;;19.92;14.50;;;;;;;13.31;100.00;101447.00;10374034;28;20041;-82
2022/07/01 01:10:57;;;;;;;15.40;13.70;;;;;;;13.25;100.00;101430.44;10358643;28;20036;-82
2022/07/01 01:15:58;;;;;;;17.50;12.82;;;;;;;13.22;100.00;101435.41;10373870;28;20065;-82
2022/07/01 01:20:58;;;;;;;17.45;13.02;;;;;;;13.24;100.00;101444.19;10380299;28;20397;-82
2022/07/01 01:25:59;;;;;;;17.30;12.80;;;;;;;13.27;100.00;101449.28;10379212;28;20427;-81
2022/07/01 01:30:59;;;;;;;17.13;13.57;;;;;;;13.43;100.00;101457.09;10374215;28;20034;-82
2022/07/01 01:35:59;;;;;;;16.38;12.77;;;;;;;13.64;100.00;101453.41;10375813;28;20107;-83
2022/07/01 01:41:00;;;;;;;16.63;14.00;;;;;;;13.79;100.00;101455.13;10374068;28;20496;-82
2022/07/01 01:46:01;;;;;;;15.50;11.35;;;;;;;13.86;100.00;101464.16;10389959;28;20096;-83
2022/07/01 01:51:02;;;;;;;20.45;11.60;;;;;;;13.93;100.00;101475.91;10388760;28;20033;-83
2022/07/01 01:56:02;;;;;;;15.00;11.85;;;;;;;13.97;100.00;101485.31;10387437;28;20049;-84
2022/07/01 02:01:03;;;;;;;14.05;10.88;;;;;;;13.97;100.00;101488.03;10383650;28;20062;-85
2022/07/01 02:06:04;;;;;;;9.65;8.60;;;;;;;14.01;100.00;101474.84;10398776;28;20117;-86
2022/07/01 02:11:05;;;;;;;18.20;8.32;;;;;;;13.94;100.00;101472.97;10404309;28;20560;-84
2022/07/01 02:16:05;;;;;;;17.35;9.52;;;;;;;13.76;100.00;101464.56;10386559;28;20088;-85
2022/07/01 02:21:05;;;;;;;11.15;6.45;;;;;;;13.62;100.00;101485.41;10379540;28;20030;-85
2022/07/01 02:26:06;;;;;;;8.20;7.40;;;;;;;13.55;100.00;101484.56;10386177;28;20401;-84
2022/07/01 02:31:06;;;;;;;8.23;7.35;;;;;;;13.47;100.00;101492.91;10385522;28;20033;-84
2022/07/01 02:36:07;;;;;;;8.20;5.90;;;;;;;13.46;100.00;101492.06;10382484;28;20026;-85
2022/07/01 02:41:09;;;;;;;11.77;7.20;;;;;;;13.40;100.00;101495.59;10383935;28;20049;-85
2022/07/01 02:46:09;;;;;;;16.55;7.80;;;;;;;13.35;100.00;101503.50;10385122;28;20033;-86
2022/07/01 02:51:10;;;;;;;8.30;7.28;;;;;;;13.32;100.00;101486.75;10385185;28;20474;-83
2022/07/01 02:56:10;;;;;;;12.82;7.20;;;;;;;13.27;100.00;101490.06;10386944;28;20045;-86
2022/07/01 03:01:10;;;;;;;12.75;7.70;;;;;;;13.18;100.00;101492.09;10383848;28;20141;-86
2022/07/01 03:06:11;;;;;;;11.65;7.07;;;;;;;13.09;100.00;101498.72;10382725;28;20118;-85
2022/07/01 03:11:11;;;;;;;9.25;8.20;;;;;;;12.99;100.00;101492.81;10381914;28;20409;-86
2022/07/01 03:16:12;;;;;;;8.80;6.97;;;;;;;13.01;100.00;101505.16;10382263;28;20034;-85
2022/07/01 03:21:12;;;;;;;15.25;9.00;;;;;;;12.98;100.00;101507.44;10380941;28;20080;-86
2022/07/01 03:26:14;;;;;;;10.02;7.45;;;;;;;12.96;100.00;101498.66;10387832;28;20057;-86
2022/07/01 03:31:15;;;;;;;20.75;8.23;;;;;;;13.01;100.00;101493.44;10380148;28;20034;-86
2022/07/01 03:36:15;;;;;;;25.90;10.65;;;;;;;13.04;100.00;101496.59;10382076;28;20034;-85
2022/07/01 03:41:16;;;;;;;14.82;8.73;;;;;;;13.08;100.00;101512.50;10380178;28;20451;-85
2022/07/01 03:46:17;;;;;;;14.13;8.45;;;;;;;13.26;100.00;101518.31;10380562;28;20037;-86
2022/07/01 03:51:17;;;;;;;13.32;9.88;;;;;;;13.36;100.00;101524.22;10396419;28;20034;-85
2022/07/01 03:56:17;;;;;;;10.05;8.93;;;;;;;13.39;100.00;101528.44;10380060;28;20045;-86
2022/07/01 04:01:18;;;;;;;15.70;9.63;;;;;;;13.41;100.00;101529.09;10377326;28;20061;-85
2022/07/01 04:06:18;;;;;;;17.85;10.05;;;;;;;13.47;100.00;101528.28;10376502;28;20034;-84
2022/07/01 04:11:18;;;;;;;16.58;9.65;;;;;;;13.42;100.00;101541.63;10376585;28;20041;-85
2022/07/01 04:16:19;;;;;;;17.45;9.20;;;;;;;13.37;100.00;101541.38;10378217;28;20041;-86
2022/07/01 04:26:39;;;;;;;14.82;9.07;;;;;;;13.63;100.00;101552.44;10381677;28;20038;-85
2022/07/01 04:31:39;;;;;;;12.18;9.70;;;;;;;13.65;100.00;101558.50;10392230;28;20030;-86
2022/07/01 04:36:40;;;;;;;11.75;9.55;;;;;;;13.67;100.00;101550.16;10375845;28;20029;-86
2022/07/01 04:46:59;;;;;;;17.38;8.52;;;;;;;14.12;100.00;101566.88;10375707;28;20121;-85
2022/07/01 04:52:00;;;;;;;11.10;7.93;;;;;;;14.62;100.00;101570.16;10375368;28;20441;-86
2022/07/01 04:57:01;;;;;;;18.00;7.70;;;;;;;14.26;100.00;101541.31;10383671;28;20033;-85
2022/07/01 05:02:01;;;;;;;11.45;7.10;;;;;;;14.03;100.00;101560.75;10376979;28;20054;-87
2022/07/01 05:07:02;;;;;;;9.55;7.63;;;;;;;14.18;100.00;101558.72;10391022;28;20049;-86
2022/07/01 05:12:02;;;;;;;9.63;6.75;;;;;;;14.61;100.00;101563.00;10375248;28;20121;-86
2022/07/01 05:17:03;;;;;;;10.55;6.82;;;;;;;15.04;100.00;101578.97;10375624;28;20030;-86
2022/07/01 05:22:03;;;;;;;10.10;6.63;;;;;;;16.12;100.00;101589.47;10377186;28;20037;-86
2022/07/01 05:27:04;;;;;;;10.02;5.90;;;;;;;16.64;100.00;101584.72;10384283;28;20034;-86
2022/07/01 05:32:05;;;;;;;18.95;5.50;;;;;;;16.39;100.00;101585.50;10375227;28;20393;-85
2022/07/01 05:37:05;;;;;;;7.43;4.95;;;;;;;16.53;100.00;101594.47;10373487;28;20096;-85
2022/07/01 05:42:05;;;;;;;9.45;4.28;;;;;;;17.27;100.00;101598.34;10373626;28;20088;-85
2022/07/01 05:47:06;;;;;;;8.65;4.05;;;;;;;16.76;100.00;101580.25;10355971;28;20036;-84
2022/07/01 05:52:07;;;;;;;12.52;5.15;;;;;;;15.91;100.00;101588.69;10373538;28;20059;-83
2022/07/01 05:57:07;;;;;;;10.57;5.63;;;;;;;15.43;100.00;101583.53;10372440;28;20040;-83
2022/07/01 06:02:08;;;;;;;6.00;4.47;;;;;;;15.53;100.00;101583.94;10376158;28;20062;-83
2022/07/01 06:07:10;;;;;;;8.63;4.30;;;;;;;17.03;100.00;101571.81;10381334;28;20073;-83
2022/07/01 06:12:10;;;;;;;5.78;5.15;;;;;;;17.65;100.00;101586.38;10380945;28;20446;-82
2022/07/01 06:17:11;;;;;;;10.00;4.10;;;;;;;18.79;100.00;101581.06;10381409;28;20154;-82
2022/07/01 06:22:16;;;;;;;10.93;3.42;;;;;;;19.37;100.00;101579.44;10380640;28;20532;-81
2022/07/01 06:27:16;;;;;;;3.65;3.35;;;;;;;19.78;100.00;101591.38;10386571;28;20038;-81
2022/07/01 06:32:17;;;;;;;14.48;4.35;;;;;;;19.70;100.00;101592.59;10380186;28;20476;-80
2022/07/01 06:37:20;;;;;;;14.60;5.35;;;;;;;19.51;100.00;101591.88;10380435;28;20501;-81
2022/07/01 06:42:21;;;;;;;4.90;3.20;;;;;;;18.06;100.00;101591.19;10378890;28;20060;-80
2022/07/01 06:47:21;;;;;;;7.40;3.55;;;;;;;17.37;100.00;101581.41;10394820;28;20038;-80
2022/07/01 06:52:22;;;;;;;8.32;3.47;;;;;;;17.37;100.00;101579.50;10379654;28;20034;-80
2022/07/01 06:57:22;;;;;;;6.15;3.38;;;;;;;17.57;100.00;101583.94;10384145;28;20046;-68
2022/07/01 07:02:23;;;;;;;6.28;3.50;;;;;;;17.01;100.00;101601.31;10378433;28;20054;-68
2022/07/01 07:07:24;;;;;;;7.90;4.22;;;;;;;16.57;100.00;101605.81;10378969;28;20045;-69
2022/07/01 07:12:24;;;;;;;9.05;4.18;;;;;;;16.31;100.00;101615.00;10334532;28;20046;-67
2022/07/01 07:17:25;;;;;;;7.97;2.80;;;;;;;15.95;100.00;101614.53;10379466;28;20049;-67
2022/07/01 07:22:25;;;;;;;8.75;3.90;;;;;;;15.87;100.00;101611.19;10426069;28;20060;-78
2022/07/01 07:27:25;;;;;;;2.47;2.33;;;;;;;15.99;100.00;101613.03;10444806;28;20397;-76
2022/07/01 07:32:26;;;;;;;3.75;3.00;;;;;;;16.76;100.00;101621.28;10460297;28;20029;-70
2022/07/01 07:37:27;;;;;;;8.55;3.33;;;;;;;17.50;100.00;101643.41;10458616;28;20037;-70
2022/07/01 07:42:27;;;;;;;4.63;2.83;;;;;;;16.98;100.00;101631.88;10459738;28;20040;-70
2022/07/01 07:47:28;;;;;;;9.10;2.45;;;;;;;16.69;100.00;101651.38;10458313;28;20033;-70
2022/07/01 07:52:28;;;;;;;7.72;2.92;;;;;;;16.70;100.00;101638.53;10441817;28;20436;-70
2022/07/01 07:57:29;;;;;;;7.10;3.05;;;;;;;17.00;100.00;101643.41;10457928;28;20108;-69
2022/07/01 08:02:29;;;;;;;6.63;2.03;;;;;;;16.54;100.00;101645.38;10457527;28;20136;-70
2022/07/01 08:07:29;;;;;;;5.38;2.17;;;;;;;16.24;100.00;101648.69;10458909;28;20498;-70
2022/07/01 08:12:30;;;;;;;7.20;2.17;;;;;;;16.00;100.00;101658.41;10457369;28;20045;-72
2022/07/01 08:17:30;;;;;;;7.38;1.98;;;;;;;15.81;100.00;101662.88;10458151;28;20171;-70
2022/07/01 08:22:31;;;;;;;4.63;1.40;;;;;;;15.71;100.00;101658.91;10440305;28;20380;-71
2022/07/01 08:27:31;;;;;;;5.20;1.55;;;;;;;15.59;100.00;101667.72;10457657;28;20043;-79
2022/07/01 08:32:32;;;;;;;8.35;2.45;;;;;;;15.58;100.00;101663.31;10439662;28;20083;-79
2022/07/01 08:37:32;;;;;;;5.88;2.03;;;;;;;15.87;100.00;101672.13;10439736;28;20550;-79
2022/07/01 08:42:32;;;;;;;6.88;2.42;;;;;;;16.02;100.00;101672.72;10439819;28;20033;-79
2022/07/01 08:47:33;;;;;;;5.95;2.72;;;;;;;16.10;100.00;101677.09;10457900;28;20472;-79
2022/07/01 08:52:33;;;;;;;4.70;2.45;;;;;;;16.18;100.00;101686.97;10457138;28;20432;-79
2022/07/01 08:57:33;;;;;;;2.30;2.10;;;;;;;16.12;100.00;101693.28;10441310;28;20388;-80
2022/07/01 09:02:50;;;;;;;4.70;2.47;;;;;;;16.12;100.00;101705.03;10456495;28;20044;-79
2022/07/01 09:07:57;;;;;;;;;;;;;;;18.26;100.00;101697.84;10457129;28;20400;-79
2022/07/01 09:13:07;;;;;;;4.82;2.05;;;;;;;19.19;100.00;101699.31;10455129;28;20321;-79
2022/07/01 09:18:10;;;;;;;4.93;1.05;;;;;;;21.05;100.00;101698.47;10455314;28;20044;-80
2022/07/01 09:23:12;;;;;;;1.92;1.25;;;;;;;22.21;100.00;101699.78;10457836;28;20395;-70
2022/07/01 09:28:28;;;;;;;1.20;1.10;;;;;;;22.81;100.00;101693.28;10460628;28;20075;-81
2022/07/01 09:33:28;;;;;;;1.80;1.70;;;;;;;23.60;100.00;101709.22;10439837;28;20070;-79
2022/07/01 09:38:29;;;;;;;4.72;1.52;;;;;;;23.69;100.00;101715.13;10453673;28;20033;-80
2022/07/01 09:43:29;;;;;;;2.58;1.42;;;;;;;23.54;100.00;101714.97;10455869;28;20068;-80
2022/07/01 09:48:32;;;;;;;1.05;1.02;;;;;;;21.91;100.00;101719.44;10455654;28;20112;-81
2022/07/01 09:53:33;;;;;;;5.40;2.38;;;;;;;20.30;100.00;101715.97;10437999;28;20036;-80
2022/07/01 09:58:35;;;;;;;10.40;2.67;;;;;;;20.83;100.00;101716.75;10458995;28;20037;-81
2022/07/01 10:03:37;;;;;;;5.88;2.42;;;;;;;22.35;100.00;101711.25;10454914;28;20052;-80
2022/07/01 10:08:56;;;;;;;5.43;1.70;;;;;;;20.67;100.00;101713.72;10454773;28;20485;-77
2022/07/01 10:13:57;;;;;;;3.50;1.35;;;;;;;19.87;100.00;101710.88;10437188;28;20044;-78
2022/07/01 10:18:57;;;;;;;5.00;1.98;;;;;;;19.36;100.00;101720.59;10437032;28;20037;-77
2022/07/01 10:24:17;;;;;;;6.95;2.13;;;;;;;19.00;100.00;101730.66;10439063;28;20033;-76
2022/07/01 10:29:31;;;;;;;5.90;1.70;;;;;;;18.62;100.00;101733.69;10439286;28;20037;-76
2022/07/01 10:34:36;;;;;;;7.07;2.22;;;;;;;18.61;100.00;101743.00;10436358;28;20075;-77
2022/07/01 10:39:58;;;;;;;3.70;2.05;;;;;;;18.53;100.00;101744.97;10454411;28;20037;-77
2022/07/01 10:45:18;;;;;;;5.60;2.83;;;;;;;18.60;100.00;101744.88;10436484;28;20040;-76
2022/07/01 10:50:19;;;;;;;2.90;2.03;;;;;;;18.76;100.00;101755.28;10442122;28;20476;-72
2022/07/01 10:55:19;;;;;;;4.35;1.52;;;;;;;18.88;100.00;101744.31;10461621;28;20112;-71
2022/07/01 11:00:20;;;;;;;2.95;1.92;;;;;;;18.58;100.00;101749.78;10443169;28;20431;-71
2022/07/01 11:05:20;;;;;;;3.63;2.05;;;;;;;18.21;100.00;101751.66;10460468;28;20120;-73
2022/07/01 11:10:20;;;;;;;5.43;2.05;;;;;;;17.58;100.00;101766.34;10365924;28;20057;-82
2022/07/01 11:15:22;;;;;;;2.92;2.25;;;;;;;17.11;100.00;101765.84;10465374;28;20480;-81
2022/07/01 11:20:24;;;;;;;3.22;2.85;;;;;;;17.13;100.00;101764.59;10457759;28;20052;-78
2022/07/01 11:25:24;;;;;;;3.15;1.98;;;;;;;17.30;100.00;101775.84;10478721;28;20150;-80
2022/07/01 11:30:24;;;;;;;11.25;2.67;;;;;;;17.72;100.00;101778.88;10501859;28;20155;-77
2022/07/01 11:40:45;;;;;;;6.78;2.45;;;;;;;20.97;100.00;101778.72;10454310;28;20029;-79
2022/07/01 11:45:46;;;;;;;0.95;0.90;;;;;;;22.05;100.00;101784.22;10440756;28;20536;-73
2022/07/01 11:50:46;;;;;;;3.30;1.55;;;;;;;21.76;100.00;101786.22;10441475;28;20044;-74
2022/07/01 11:55:47;;;;;;;1.50;1.38;;;;;;;21.66;100.00;101797.06;10457458;28;20037;-77
2022/07/01 12:00:48;;;;;;;4.32;1.30;;;;;;;22.69;100.00;101780.97;10440117;28;20420;-78
2022/07/01 12:05:50;;;;;;;1.08;1.02;;;;;;;23.96;89.35;101791.66;10458283;28;20057;-78
2022/07/01 12:10:51;;;;;;;11.90;1.38;;;;;;;24.37;100.00;101781.66;10440551;28;20112;-78
2022/07/01 12:15:51;;;;;;;2.15;1.10;;;;;;;24.18;82.55;101785.97;10474674;28;20384;-78
2022/07/01 12:20:54;;;;;;;3.13;1.33;;;;;;;24.32;100.00;101785.25;10481563;28;20032;-69
2022/07/01 12:25:55;;;;;;;4.30;1.95;;;;;;;23.56;100.00;101782.72;10482129;28;20068;-73
2022/07/01 12:31:09;;;;;;;3.05;1.17;;;;;;;21.72;100.00;101779.53;10499549;28;20060;-69
2022/07/01 12:36:12;;;;;;;3.13;1.83;;;;;;;20.54;100.00;101807.56;10463520;28;20089;-68
2022/07/01 12:41:27;;;;;;;4.85;1.15;;;;;;;18.80;100.00;101819.59;10497741;28;20083;-74
2022/07/01 12:46:29;;;;;;;1.52;1.30;;;;;;;17.50;100.00;101821.41;10497846;28;20119;-72
2022/07/01 12:51:32;;;;;;;3.25;2.25;;;;;;;18.13;100.00;101824.09;10480495;28;20040;-71
2022/07/01 12:56:33;;;;;;;2.50;1.42;;;;;;;18.27;100.00;101820.16;10499876;28;20070;-74
2022/07/01 13:01:33;;;;;;;2.88;2.22;;;;;;;17.97;100.00;101813.72;10479837;28;20665;-74
2022/07/01 13:06:34;;;;;;;3.67;1.85;;;;;;;17.92;100.00;101808.03;10479727;28;20066;-77
2022/07/01 13:11:34;;;;;;;2.78;1.80;;;;;;;18.92;100.00;101805.06;10436865;28;20052;-73
2022/07/01 13:16:35;;;;;;;3.35;1.48;;;;;;;19.98;100.00;101798.84;10427858;28;20043;-72
2022/07/01 13:21:35;;;;;;;2.60;1.90;;;;;;;20.10;100.00;101796.13;10455155;28;20124;-72
2022/07/01 13:26:39;;;;;;;3.40;2.13;;;;;;;20.09;100.00;101791.66;10456206;28;20041;-72
2022/07/01 13:31:39;;;;;;;9.13;2.38;;;;;;;20.78;100.00;101802.84;10453387;28;20032;-71
2022/07/01 13:36:39;;;;;;;5.18;1.95;;;;;;;21.34;100.00;101800.34;10471126;28;20036;-78
2022/07/01 13:41:40;;;;;;;2.22;1.75;;;;;;;21.03;100.00;101813.53;10453675;28;20033;-76
2022/07/01 13:46:40;;;;;;;8.77;2.85;;;;;;;21.84;100.00;101799.59;10456690;28;20575;-75
2022/07/01 13:51:41;;;;;;;2.08;1.83;;;;;;;21.71;100.00;101805.44;10454014;28;20145;-74
2022/07/01 13:56:42;;;;;;;4.78;2.10;;;;;;;22.28;100.00;101805.25;10453633;28;20469;-77
2022/07/01 14:01:43;;;;;;;6.25;2.03;;;;;;;22.36;100.00;101815.00;10453814;28;20444;-80
2022/07/01 14:06:43;;;;;;;1.38;1.17;;;;;;;23.52;100.00;101822.25;10470800;28;20040;-79
2022/07/01 14:11:44;;;;;;;4.43;1.77;;;;;;;23.16;100.00;101816.31;10454789;28;20033;-79
2022/07/01 14:16:45;;;;;;;2.55;1.42;;;;;;;22.97;100.00;101813.94;10454158;28;20135;-81
2022/07/01 14:21:45;;;;;;;3.97;1.52;;;;;;;22.91;100.00;101834.25;10458495;28;20056;-79
2022/07/01 14:26:46;;;;;;;1.58;1.10;;;;;;;23.50;100.00;101841.00;10489728;28;20457;-79
2022/07/01 14:31:47;;;;;;;2.45;1.65;;;;;;;23.62;97.99;101842.53;10462889;28;20036;-81
2022/07/01 14:36:48;;;;;;;1.55;1.35;;;;;;;24.00;100.00;101848.97;10477993;28;20041;-80
2022/07/01 14:41:49;;;;;;;1.73;0.93;;;;;;;24.16;96.47;101838.03;10463643;28;20044;-81
2022/07/01 14:46:51;;;;;;;1.33;1.30;;;;;;;23.73;95.04;101831.56;10461618;28;20041;-83
2022/07/01 14:51:51;;;;;;;3.17;1.30;;;;;;;23.83;98.44;101838.00;10462267;28;20094;-83
2022/07/01 14:56:51;;;;;;;1.15;1.00;;;;;;;24.04;100.00;101832.66;10480806;28;20033;-82
2022/07/01 15:01:52;;;;;;;6.97;1.83;;;;;;;24.27;91.75;101837.81;10472521;28;20049;-83
2022/07/01 15:06:52;;;;;;;0.65;0.65;;;;;;;24.20;91.06;101828.91;10461872;28;20108;-84
2022/07/01 15:11:53;;;;;;;3.30;1.38;;;;;;;23.98;95.12;101828.19;10461734;28;20036;-82
2022/07/01 15:16:53;;;;;;;4.53;1.17;;;;;;;23.11;91.49;101832.88;10460468;28;20025;-82
2022/07/01 15:21:54;;;;;;;0.60;0.60;;;;;;;22.28;84.26;101839.19;10462379;28;20033;-82
2022/07/01 15:26:55;;;;;;;3.17;1.40;;;;;;;22.14;79.13;101842.53;10452913;28;20033;-83
2022/07/01 15:31:55;;;;;;;1.20;1.13;;;;;;;22.14;85.88;101853.56;10444133;28;20037;-80
2022/07/01 15:36:56;;;;;;;1.33;0.98;;;;;;;21.88;92.88;101847.63;10458594;28;20583;-83
2022/07/01 15:42:00;;;;;;;6.32;1.35;;;;;;;21.64;80.59;101857.97;10460585;28;20464;-82
2022/07/01 15:48:05;;;;;;;2.22;1.30;;;;;;;22.08;93.87;101851.81;10442975;28;20029;-82
2022/07/01 15:52:21;;;;;;;1.75;1.65;;;;;;;22.08;93.61;101860.94;10458829;28;20397;-82
2022/07/01 15:57:22;;;;;;;1.60;1.40;;;;;;;21.79;91.75;101857.38;10459871;28;20044;-82
2022/07/01 16:02:22;;;;;;;6.50;1.85;;;;;;;21.70;86.17;101859.75;10459196;28;20087;-83
2022/07/01 16:07:24;;;;;;;5.97;1.15;;;;;;;22.27;90.63;101870.66;10459751;28;20392;-82
2022/07/01 16:12:25;;;;;;;1.38;1.20;;;;;;;22.75;92.88;101860.84;10441680;28;20064;-82
2022/07/01 16:17:27;;;;;;;2.47;1.52;;;;;;;22.57;78.14;101869.44;10478474;28;20025;-83
2022/07/01 16:22:27;;;;;;;1.88;1.33;;;;;;;22.10;77.35;101869.78;10443973;28;20032;-81
2022/07/01 16:27:29;;;;;;;3.20;1.60;;;;;;;21.71;83.86;101877.13;10447341;28;20480;-82
2022/07/01 16:32:30;;;;;;;3.70;0.95;;;;;;;20.95;83.44;101890.19;10459291;28;20029;-82
2022/07/01 16:37:31;;;;;;;4.32;2.00;;;;;;;20.41;83.28;101885.66;10442746;28;20032;-82
2022/07/01 16:42:32;;;;;;;1.67;1.58;;;;;;;20.15;81.77;101886.97;10425226;28;20029;-82
2022/07/01 16:47:40;;;;;;;2.58;2.20;;;;;;;20.03;82.69;101883.34;10440316;28;20049;-81
2022/07/01 16:52:48;;;;;;;5.03;1.58;;;;;;;20.00;85.55;101883.81;10461211;28;20420;-82
2022/07/01 16:57:49;;;;;;;3.53;1.08;;;;;;;19.78;81.79;101888.19;10463399;28;20124;-81
2022/07/01 17:02:50;;;;;;;7.10;1.58;;;;;;;19.72;83.56;101893.59;10439427;28;20071;-81
2022/07/01 17:07:51;;;;;;;7.07;2.15;;;;;;;19.48;82.72;101900.03;10439735;28;20439;-82
2022/07/01 17:12:51;;;;;;;4.25;1.63;;;;;;;19.43;85.55;101899.88;10455955;28;20087;-81
2022/07/01 17:17:52;;;;;;;3.70;1.90;;;;;;;19.29;81.55;101907.47;10455552;28;20048;-82
2022/07/01 17:23:19;;;;;;;7.35;2.78;;;;;;;19.09;79.25;101899.47;10458798;28;20037;-82
2022/07/01 17:28:38;;;;;;;4.03;1.10;;;;;;;19.00;80.44;101915.41;10462037;28;20029;-82
2022/07/01 17:33:39;;;;;;;3.53;1.88;;;;;;;18.96;79.81;101918.84;10467172;28;20124;-82
2022/07/01 17:38:45;;;;;;;5.85;1.55;;;;;;;18.84;77.56;101912.44;10438910;28;20473;-80
2022/07/01 17:43:49;;;;;;;1.70;1.27;;;;;;;18.73;76.89;101928.59;10456452;28;20481;-81
2022/07/01 17:48:49;;;;;;;2.78;1.38;;;;;;;18.83;79.17;101927.25;10438020;28;20036;-79
2022/07/01 17:53:50;;;;;;;9.35;1.15;;;;;;;18.64;73.37;101931.84;10454974;28;20384;-81
2022/07/01 17:58:54;;;;;;;4.63;1.23;;;;;;;18.57;73.89;101934.63;10461300;28;20021;-81
2022/07/01 18:03:54;;;;;;;1.17;1.05;;;;;;;18.50;73.02;101933.84;10445845;28;20132;-82
2022/07/01 18:08:55;;;;;;;1.25;1.15;;;;;;;18.44;71.13;101941.09;10446182;28;20464;-80
2022/07/01 18:13:58;;;;;;;1.85;0.90;;;;;;;18.37;71.01;101943.03;10446366;28;20178;-82
2022/07/01 18:19:28;;;;;;;10.30;1.10;;;;;;;18.35;72.18;101940.53;10463555;28;20029;-81
2022/07/01 18:24:35;;;;;;;3.00;1.48;;;;;;;18.34;74.38;101938.81;10458269;28;20083;-81
2022/07/01 18:29:35;;;;;;;;;;;;;;;18.21;72.76;101936.19;10446849;28;20499;-81
2022/07/01 18:34:51;;;;;;;3.45;1.38;;;;;;;18.08;71.22;101930.81;10462082;28;19915;-81
2022/07/01 18:39:51;;;;;;;2.75;1.33;;;;;;;18.02;72.13;101940.75;10473538;28;20537;-74
2022/07/01 18:44:52;;;;;;;1.38;1.13;;;;;;;18.02;74.48;101939.94;10462019;28;20029;-77
2022/07/01 18:49:52;;;;;;;2.15;1.17;;;;;;;17.87;73.55;101948.47;10453637;28;20021;-77
2022/07/01 18:54:53;;;;;;;1.67;1.40;;;;;;;17.84;74.84;101947.00;10472138;28;20071;-77
2022/07/01 18:59:53;;;;;;;1.63;1.52;;;;;;;17.77;76.08;101951.69;10466772;28;20040;-77
2022/07/01 19:04:53;;;;;;;5.00;1.60;;;;;;;17.78;79.88;101956.09;10443028;28;20053;-77
2022/07/01 19:09:54;;;;;;;2.28;1.00;;;;;;;17.63;80.81;101961.00;10443388;28;20045;-77
2022/07/01 19:14:54;;;;;;;7.57;1.33;;;;;;;17.59;82.34;101965.25;10461166;28;20029;-78
2022/07/01 19:19:54;;;;;;;7.40;1.95;;;;;;;17.48;82.83;101963.19;10461102;28;20036;-77
2022/07/01 19:24:55;;;;;;;3.17;1.92;;;;;;;17.42;84.08;101968.47;10447763;28;20037;-78
2022/07/01 19:29:55;;;;;;;1.95;1.13;;;;;;;17.36;85.97;101974.81;10459882;28;20171;-77
2022/07/01 19:34:56;;;;;;;7.20;2.90;;;;;;;17.26;85.07;101982.66;10425591;28;20393;-78
2022/07/01 19:39:56;;;;;;;1.95;1.75;;;;;;;17.18;86.22;101988.34;10442438;28;20033;-77
2022/07/01 19:44:56;;;;;;;1.42;1.33;;;;;;;17.02;85.48;101997.88;10459999;28;20033;-76
2022/07/01 19:49:57;;;;;;;7.45;1.75;;;;;;;16.92;85.11;101997.47;10441614;28;20127;-76
2022/07/01 19:54:57;;;;;;;9.50;1.73;;;;;;;16.88;84.66;102008.00;10441759;28;20082;-77
2022/07/01 19:59:58;;;;;;;12.93;2.72;;;;;;;16.82;84.77;102019.78;10442751;28;20057;-76
2022/07/01 20:04:59;;;;;;;9.30;2.22;;;;;;;16.70;84.15;102019.53;10426267;28;20107;-77
2022/07/01 20:09:59;;;;;;;4.68;1.40;;;;;;;16.63;84.05;102029.66;10457533;28;20052;-77
2022/07/01 20:15:00;;;;;;;1.75;1.65;;;;;;;16.54;84.37;102028.16;10459351;28;20040;-77
2022/07/01 20:20:02;;;;;;;4.60;1.92;;;;;;;16.49;84.02;102036.16;10458223;28;20045;-77
2022/07/01 20:25:04;;;;;;;0.80;0.80;;;;;;;16.39;85.00;102042.03;10449058;28;20044;-76
2022/07/01 20:30:05;;;;;;;5.68;2.08;;;;;;;16.35;85.50;102042.66;10424689;28;20092;-78
2022/07/01 20:35:06;;;;;;;3.17;1.42;;;;;;;16.17;85.06;102040.50;10457601;28;20040;-77
2022/07/01 20:40:07;;;;;;;12.68;2.40;;;;;;;16.09;86.19;102038.00;10456887;28;20033;-78
2022/07/01 20:45:08;;;;;;;4.13;2.00;;;;;;;15.97;85.97;102049.50;10457709;28;20505;-78
2022/07/01 20:50:08;;;;;;;3.95;1.40;;;;;;;15.79;87.34;102046.50;10439536;28;20086;-78
2022/07/01 20:55:09;;;;;;;2.67;1.33;;;;;;;15.72;87.45;102065.59;10451441;28;20037;-78
2022/07/01 21:00:10;;;;;;;2.35;1.65;;;;;;;15.61;86.92;102063.41;10461468;28;20492;-78
2022/07/01 21:05:11;;;;;;;3.63;1.65;;;;;;;15.45;88.34;102050.09;10438346;28;20048;-77
2022/07/01 21:10:11;;;;;;;4.03;1.75;;;;;;;15.33;88.45;102058.84;10422633;28;20469;-77
2022/07/01 21:15:12;;;;;;;8.45;2.40;;;;;;;15.22;90.84;102064.00;10456845;28;20043;-78
2022/07/01 21:20:12;;;;;;;5.53;2.08;;;;;;;15.26;91.16;102068.03;10441952;28;20064;-78
2022/07/01 21:25:12;;;;;;;1.83;1.48;;;;;;;15.26;91.62;102068.88;10443699;28;20047;-78
2022/07/01 21:30:13;;;;;;;6.82;2.53;;;;;;;15.24;93.12;102075.56;10440784;28;20048;-76
2022/07/01 21:35:13;;;;;;;6.65;2.40;;;;;;;15.23;94.16;102082.09;10455524;28;20057;-77
2022/07/01 21:40:14;;;;;;;3.45;1.98;;;;;;;15.23;93.52;102076.63;10456043;28;20048;-76
2022/07/01 21:45:14;;;;;;;5.70;2.50;;;;;;;15.25;94.03;102075.41;10438198;28;20111;-77
2022/07/01 21:50:16;;;;;;;6.75;1.80;;;;;;;15.12;93.76;102088.91;10421391;28;20037;-76
2022/07/01 21:55:17;;;;;;;7.15;2.80;;;;;;;15.04;92.78;102087.19;10454729;28;20064;-76
2022/07/01 22:00:19;;;;;;;2.67;1.70;;;;;;;14.91;92.51;102078.91;10421465;28;20032;-76
2022/07/01 22:05:19;;;;;;;3.78;2.15;;;;;;;14.85;92.98;102096.06;10453620;28;20120;-77
2022/07/01 22:10:20;;;;;;;3.55;1.92;;;;;;;14.77;93.62;102085.28;10454303;28;20404;-77
2022/07/01 22:15:20;;;;;;;6.15;2.55;;;;;;;14.70;93.37;102085.22;10454039;28;20447;-76
2022/07/01 22:20:21;;;;;;;12.02;3.13;;;;;;;14.61;93.45;102095.44;10437789;28;20468;-76
2022/07/01 22:25:22;;;;;;;1.52;1.42;;;;;;;14.53;95.23;102092.00;10439087;28;20418;-76
2022/07/01 22:30:22;;;;;;;5.25;2.30;;;;;;;14.49;96.64;102099.69;10437905;28;20028;-76
2022/07/01 22:35:23;;;;;;;5.78;2.72;;;;;;;14.38;95.18;102090.13;10439696;28;20041;-77
2022/07/01 22:40:23;;;;;;;7.30;2.90;;;;;;;14.31;95.77;102091.94;10436997;28;20033;-77
2022/07/01 22:45:24;;;;;;;7.00;2.33;;;;;;;14.25;95.86;102097.31;10406828;28;20041;-82
2022/07/01 22:50:31;;;;;;;4.85;2.20;;;;;;;14.24;96.95;102101.09;10388254;28;20065;-81
2022/07/01 22:55:50;;;;;;;6.30;2.95;;;;;;;14.16;96.84;102102.03;10427048;28;20033;-81
2022/07/01 23:00:52;;;;;;;7.32;3.03;;;;;;;14.09;96.83;102109.28;10404486;28;20080;-80
2022/07/01 23:05:54;;;;;;;9.70;3.33;;;;;;;14.03;98.24;102110.03;10420747;28;20453;-82